Lord Howe Island Airport

Airport
ICAO code: 
YLHI
IATA Code: 
LDH
Summary
ICAO Region: 
APAC
Territory: 
Location: 
Lord Howe Island, New South Wales
Serving: 
Lord Howe Island
Elevation: 
5 ft
Coordinates: 
Aerial View: 
31° 32' 17.88" S, 159° 4' 37.2" E
Metar
Observation
YLHI 011030Z AUTO 07009KT 8000 // BKN010 OVC110 22/21 Q1015
Station
Lord Howe Island Airport
Date/Time
2021-12-01 10:30:00
Wind direction
70°
Wind speed
09 kts
Lowest cloud amount
broken clouds
Temperature
22°C
Dew point
21°C
Humidity
94%
QNH
1015 hPa
Weather condition
n/a

Runways

Designator Length Width Surface Rops
10/28 886 0 B Yes/Yes
Airport map: 
Aerial View: 

SKYbrary Partners:

Safety knowledge contributed by: